Currently 64°F in Lake Elsinore, California, USA
64°F
64°F / 41°F
calm
0.00"
Sunday, December 16, 2018 10:06 AM PST

Lake Elsinore, California Weather Summary
Last 36 Hours

Temperature Winds Hourly Humidity Dewpoint
Time Report Norm Report Norm Max Gusts Precip. Rpt. Norm Rpt. Norm Pressure
1,2Sun 10:06 AM  64.3°F  57°F  calm  1 mph  2 mph  0.00"  34%  68%  34°F  46°F  30.18"
Sun 10:00 AM  63.7°F  57°F  calm  1 mph  3 mph  0.00"  35%  69%  34°F  46°F  30.19"
Sun 09:00 AM  58.9°F  53°F  calm  1 mph  2 mph  0.00"  46%  77%  37°F  46°F  30.19"
Sun 08:00 AM  48.9°F  47°F  calm  1 mph  3 mph  0.00"  67%  87%  38°F  43°F  30.17"
3Sun 07:12 AM  40.5°F  43°F  calm  calm  3 mph  ----  79%  88%  34°F  39°F  30.14"
Sun 07:00 AM  40.6°F  43°F  calm  1 mph  none  0.00"  79%  88%  34°F  39°F  30.15"
Sun 06:00 AM  40.9°F  43°F  calm  1 mph  none  0.00"  75%  87%  33°F  39°F  30.14"
Sun 05:00 AM  41.1°F  43°F  calm  1 mph  none  0.00"  72%  87%  32°F  39°F  30.13"
Sun 04:00 AM  42.0°F  44°F  calm  1 mph  none  0.00"  69%  86%  32°F  40°F  30.13"
Sun 03:00 AM  42.8°F  44°F  calm  calm  none  0.00"  68%  85%  33°F  40°F  30.14"
Sun 02:00 AM  43.4°F  45°F  calm  calm  none  0.00"  70%  84%  34°F  40°F  30.13"
Sun 01:00 AM  44.3°F  45°F  calm  calm  none  0.00"  66%  83%  33°F  40°F  30.14"
Sun 12:00 AM  45.7°F  46°F  calm  calm  none  0.00"  61%  81%  32°F  41°F  30.14"
Sat 11:00 PM  47.0°F  47°F  calm  1 mph  none  0.00"  57%  81%  32°F  41°F  30.16"
Sat 10:00 PM  48.7°F  48°F  calm  1 mph  none  0.00"  55%  79%  32°F  42°F  30.15"
Sat 09:00 PM  50.7°F  49°F  calm  1 mph  none  0.00"  50%  77%  32°F  42°F  30.15"
Sat 08:00 PM  52.8°F  51°F  calm  1 mph  none  0.00"  46%  74%  32°F  42°F  30.14"
Sat 07:00 PM  55.3°F  53°F  calm  1 mph  none  0.00"  41%  70%  31°F  43°F  30.12"
Sat 06:00 PM  59.2°F  55°F  calm  1 mph  none  0.00"  37%  66%  32°F  43°F  30.10"
Sat 05:00 PM  65.5°F  58°F  calm  2 mph  7 mph  0.00"  26%  61%  28°F  44°F  30.08"
Sat 04:00 PM  72.6°F  62°F  calm  2 mph  7 mph  0.00"  16%  54%  21°F  45°F  30.06"
Sat 03:00 PM  75.8°F  65°F  1 mph SE  3 mph  5 mph  0.00"  10%  50%  13°F  45°F  30.04"
Sat 02:00 PM  76.6°F  65°F  calm  3 mph  3 mph  0.00"  9%  50%  11°F  45°F  30.04"
Sat 01:00 PM  75.7°F  65°F  calm  2 mph  4 mph  0.00"  11%  51%  14°F  45°F  30.05"
Sat 12:00 PM  74.0°F  63°F  2 mph SE  2 mph  3 mph  0.00"  13%  54%  18°F  46°F  30.08"
Sat 11:00 AM  72.4°F  61°F  calm  2 mph  4 mph  0.00"  14%  59%  19°F  46°F  30.11"
Sat 10:00 AM  69.5°F  57°F  calm  1 mph  2 mph  0.00"  17%  67%  21°F  46°F  30.12"
Sat 09:00 AM  62.7°F  53°F  calm  1 mph  2 mph  0.00"  38%  76%  36°F  46°F  30.11"
Sat 08:00 AM  48.9°F  47°F  calm  1 mph  2 mph  0.00"  60%  86%  35°F  43°F  30.10"
Sat 07:00 AM  42.8°F  43°F  calm  1 mph  3 mph  0.00"  68%  87%  33°F  39°F  30.09"
Sat 06:00 AM  44.6°F  43°F  calm  1 mph  none  0.00"  65%  86%  33°F  39°F  30.09"
Sat 05:00 AM  45.5°F  44°F  calm  1 mph  2 mph  0.00"  63%  86%  33°F  39°F  30.10"
Sat 04:00 AM  46.6°F  44°F  calm  1 mph  none  0.00"  62%  85%  34°F  39°F  30.12"
Sat 03:00 AM  46.8°F  44°F  calm  calm  4 mph  0.00"  61%  84%  33°F  40°F  30.13"
Sat 02:00 AM  48.1°F  45°F  calm  calm  4 mph  0.00"  58%  83%  33°F  40°F  30.14"
Sat 01:00 AM  48.1°F  46°F  calm  calm  none  0.00"  59%  82%  34°F  40°F  30.13"
Sat 12:00 AM  48.7°F  47°F  calm  1 mph  none  0.00"  60%  80%  35°F  40°F  30.13"
Fri 11:00 PM  50.8°F  47°F  calm  1 mph  none  0.00"  55%  79%  35°F  41°F  30.15"

  1. Current weather data. No green row appears if the current weather data is also the high or low for the current day.
  2. High temperature for the current day.
  3. Low temperature for the current day.

The Lake Elsinore, California weather pages are a service of WeatherCurrents. Lake Elsinore is located south of Corona and north of the Temecula Valley, in southwestern Riverside County, California.
Copyright ©Sun Dec 16 10:06:29 PST 2018  WeatherCurrents. All rights reserved. - Submit questions and comments - Privacy Policy

This page automatically refreshes every 10 minutes.